Gridleyville, New York
Current Conditions -  °F | °C
As of 10:56 AM on Tuesday 21 Oct 2014 (Local Time) from KITH Reporting Station
Broken Clouds Broken Clouds  
Wind Chill: 11°   Ceiling: 2400
Heat Index: 11°   Visibility: 10mi
Dew Point:   Wind: 6mph
Humidity: 80%   Direction: 160°SSE
Pressure: 29.86"   Gusts: NA
Location:  42.294°N, 76.4012°W
Report Text: KITH 211456Z 16005KT 10SM BKN024 11/08 A2986 RMK AO2 51007 60000 T01110077 RAE1357 SLP115
Loading
Personal Weather Stations






























Interactive Weather Map
Tropical Storm Tracking
New forecast layout! Learn more

10-Day Weather Forecast

Advertisements
Track Severe Weather on mobile